Detroit, Michigan
Traffic Map
Current Weather Conditions
Detroit, Michigan
Broken Clouds
Broken Clouds
32°
Feels Like: 20°
Wind Chill: 20° Ceiling: 10000
Heat Index: 32° Visibility: 15mi
Dew Point: 25° Wind: 18mph
Humidity: 75% Direction: 220° (SW)
Pressure: 30.02in Gusts: 24mph
Raw Report DataCYQG 072200Z 22016G21KT 15SM BKN100 00/M04 A3002 RMK AC6 SLP173
Traffic Incident Summary
Active as of:
Severity:
Category:
InformationThere was an issue retrieving the traffic information for this location. Please try a different location or try again shortly.
Advertisements
Track Severe Weather on mobile